createdAt,value
2023-08-19T00:02:00.643Z,100755.28
2023-08-19T00:04:27.661Z,100755.84
2023-08-19T00:06:55.865Z,100758.59
2023-08-19T00:09:22.822Z,100750.25
2023-08-19T00:11:49.769Z,100754.50
2023-08-19T00:14:16.778Z,100757.94
2023-08-19T00:16:44.870Z,100751.63
2023-08-19T00:19:12.675Z,100754.25
2023-08-19T00:21:39.702Z,100744.63
2023-08-19T00:24:08.028Z,100742.44
2023-08-19T00:26:35.073Z,100736.91
2023-08-19T00:29:01.919Z,100722.88
2023-08-19T00:31:28.815Z,100707.69
2023-08-19T00:33:55.697Z,100708.41
2023-08-19T00:36:22.975Z,100707.25
2023-08-19T00:38:52.831Z,100705.53
2023-08-19T00:41:22.426Z,100709.50
2023-08-19T00:43:49.408Z,100712.50
2023-08-19T00:46:16.290Z,100712.63
2023-08-19T00:48:43.141Z,100709.06
2023-08-19T00:51:09.999Z,100714.69
2023-08-19T00:53:36.878Z,100706.47
2023-08-19T00:56:04.790Z,100690.47
2023-08-19T00:58:33.092Z,100698.66
2023-08-19T01:01:00.084Z,100693.53
2023-08-19T01:03:27.007Z,100694.63
2023-08-19T01:06:05.262Z,100699.28
2023-08-19T01:08:39.265Z,100710.50
2023-08-19T01:11:14.752Z,100711.66
2023-08-19T01:13:51.696Z,100703.97
2023-08-19T01:16:23.990Z,100710.84
2023-08-19T01:18:52.002Z,100705.31
2023-08-19T01:21:19.301Z,100706.13
2023-08-19T01:23:48.976Z,100706.59
2023-08-19T01:26:18.036Z,100715.44
2023-08-19T01:28:45.022Z,100711.66
2023-08-19T01:31:11.957Z,100710.31
2023-08-19T01:33:39.017Z,100706.66
2023-08-19T01:36:15.095Z,100705.22
2023-08-19T01:38:48.046Z,100706.66
2023-08-19T01:41:20.383Z,100700.09
2023-08-19T01:43:47.730Z,100696.44
2023-08-19T01:46:14.715Z,100701.16
2023-08-19T01:48:41.792Z,100700.38
2023-08-19T01:51:08.627Z,100699.56
2023-08-19T01:53:35.484Z,100705.41
2023-08-19T01:56:02.324Z,100694.47
2023-08-19T01:58:30.539Z,100691.59
2023-08-19T02:00:57.421Z,100700.31
2023-08-19T02:03:24.292Z,100708.28
2023-08-19T02:05:51.166Z,100705.13
2023-08-19T02:08:17.993Z,100699.59
2023-08-19T02:10:44.979Z,100694.44
2023-08-19T02:13:11.922Z,100695.13
2023-08-19T02:15:40.285Z,100695.81
2023-08-19T02:18:07.532Z,100691.13
2023-08-19T02:20:34.630Z,100694.34
2023-08-19T02:23:02.083Z,100694.34
2023-08-19T02:25:29.171Z,100696.63
2023-08-19T02:27:56.092Z,100692.53
2023-08-19T02:30:23.110Z,100698.00
2023-08-19T02:32:51.405Z,100692.63
2023-08-19T02:35:19.241Z,100695.38
2023-08-19T02:37:46.295Z,100690.22
2023-08-19T02:40:13.250Z,100691.00
2023-08-19T02:42:40.327Z,100694.13
2023-08-19T02:45:08.336Z,100689.19
2023-08-19T02:47:35.301Z,100690.56
2023-08-19T02:50:03.936Z,100689.41
2023-08-19T02:52:30.796Z,100689.06
2023-08-19T02:54:57.684Z,100683.00
2023-08-19T02:57:24.480Z,100683.44
2023-08-19T02:59:51.349Z,100684.97
2023-08-19T03:02:18.321Z,100679.69
2023-08-19T03:04:45.259Z,100672.91
2023-08-19T03:07:13.563Z,100684.53
2023-08-19T03:09:44.163Z,100676.94
2023-08-19T03:12:11.049Z,100681.75
2023-08-19T03:14:37.944Z,100692.69
2023-08-19T03:17:05.216Z,100696.44
2023-08-19T03:19:32.101Z,100686.53
2023-08-19T03:21:58.934Z,100675.88
2023-08-19T03:24:28.305Z,100685.63
2023-08-19T03:26:55.230Z,100691.13
2023-08-19T03:29:22.174Z,100690.59
2023-08-19T03:31:49.051Z,100690.81
2023-08-19T03:34:15.905Z,100690.69
2023-08-19T03:36:42.924Z,100695.00
2023-08-19T03:39:09.903Z,100696.50
2023-08-19T03:41:38.136Z,100696.50
2023-08-19T03:44:05.706Z,100693.28
2023-08-19T03:46:32.676Z,100695.22
2023-08-19T03:48:59.541Z,100697.63
2023-08-19T03:51:27.463Z,100689.50
2023-08-19T03:53:54.339Z,100699.69
2023-08-19T03:56:21.247Z,100702.09
2023-08-19T03:58:49.832Z,100706.69
2023-08-19T04:01:16.872Z,100710.91
2023-08-19T04:03:44.509Z,100709.56
2023-08-19T04:06:12.319Z,100712.31
2023-08-19T04:08:39.348Z,100720.69
2023-08-19T04:11:07.664Z,100718.00
2023-08-19T04:13:34.910Z,100720.78
2023-08-19T04:16:05.101Z,100725.47
2023-08-19T04:18:32.169Z,100728.47
2023-08-19T04:21:03.139Z,100725.59
2023-08-19T04:23:29.954Z,100729.25
2023-08-19T04:25:56.905Z,100739.91
2023-08-19T04:28:23.860Z,100738.66
2023-08-19T04:30:50.780Z,100739.31
2023-08-19T04:33:19.374Z,100741.81
2023-08-19T04:35:47.572Z,100747.19
2023-08-19T04:38:16.296Z,100739.41
2023-08-19T04:40:43.641Z,100742.38
2023-08-19T04:43:12.414Z,100744.88
2023-08-19T04:45:40.633Z,100760.00
2023-08-19T04:48:08.098Z,100767.59
2023-08-19T04:50:36.629Z,100773.41
2023-08-19T04:53:05.151Z,100772.00
2023-08-19T04:55:34.592Z,100769.16
2023-08-19T04:58:01.470Z,100781.66
2023-08-19T05:00:28.478Z,100774.44
2023-08-19T05:02:55.399Z,100787.84
2023-08-19T05:05:22.428Z,100781.91
2023-08-19T05:07:50.838Z,100788.09
2023-08-19T05:10:17.977Z,100778.34
2023-08-19T05:12:45.001Z,100772.00
2023-08-19T05:15:13.473Z,100783.41
2023-08-19T05:17:40.479Z,100806.88
2023-08-19T05:20:08.648Z,100795.41
2023-08-19T05:22:35.727Z,100816.03
2023-08-19T05:25:06.588Z,100820.19
2023-08-19T05:27:33.736Z,100817.06
2023-08-19T05:30:00.976Z,100820.03
2023-08-19T05:32:28.312Z,100830.16
2023-08-19T05:34:55.422Z,100834.97
2023-08-19T05:37:22.804Z,100845.97
2023-08-19T05:39:50.784Z,100840.25
2023-08-19T05:42:19.420Z,100845.19
2023-08-19T05:44:46.332Z,100839.56
2023-08-19T05:47:13.713Z,100866.91
2023-08-19T05:49:40.627Z,100866.00
2023-08-19T05:52:07.711Z,100873.69
2023-08-19T05:54:34.774Z,100879.91
2023-08-19T05:57:01.723Z,100880.13
2023-08-19T05:59:29.923Z,100891.16
2023-08-19T06:01:56.839Z,100884.63
2023-08-19T06:04:23.787Z,100893.78
2023-08-19T06:06:52.627Z,100896.75
2023-08-19T06:09:21.466Z,100895.97
2023-08-19T06:11:49.810Z,100908.72
2023-08-19T06:14:16.847Z,100912.78
2023-08-19T06:16:47.289Z,100907.56
2023-08-19T06:19:14.976Z,100917.09
2023-08-19T06:21:41.775Z,100920.50
2023-08-19T06:24:09.220Z,100919.44
2023-08-19T06:26:36.055Z,100920.13
2023-08-19T06:29:03.387Z,100933.31
2023-08-19T06:31:31.022Z,100930.16
2023-08-19T06:33:59.956Z,100937.47
2023-08-19T06:36:29.855Z,100958.03
2023-08-19T06:39:04.819Z,100973.97
2023-08-19T06:41:35.537Z,100963.75
2023-08-19T06:44:04.875Z,100951.69
2023-08-19T06:46:32.867Z,100960.34
2023-08-19T06:49:01.708Z,100969.91
2023-08-19T06:51:30.254Z,100970.47
2023-08-19T06:53:57.618Z,100977.03
2023-08-19T06:56:29.415Z,100987.78
2023-08-19T06:59:03.394Z,100981.97
2023-08-19T07:01:32.217Z,100997.63
2023-08-19T07:04:01.244Z,100999.28
2023-08-19T07:06:32.376Z,101006.50
2023-08-19T07:09:00.613Z,101008.84
2023-08-19T07:11:28.899Z,101011.88
2023-08-19T07:13:56.441Z,101013.97
2023-08-19T07:16:26.532Z,101014.13
2023-08-19T07:18:57.724Z,101019.53
2023-08-19T07:21:26.239Z,101015.91
2023-08-19T07:23:58.484Z,101036.69
2023-08-19T07:26:26.686Z,101026.63
2023-08-19T07:28:53.956Z,101037.41
2023-08-19T07:31:22.173Z,101041.53
2023-08-19T07:33:48.950Z,101051.97
2023-08-19T07:36:15.868Z,101055.94
2023-08-19T07:38:44.276Z,101064.75
2023-08-19T07:41:11.439Z,101063.44
2023-08-19T07:43:38.417Z,101070.44
2023-08-19T07:46:05.404Z,101072.97
2023-08-19T07:48:33.058Z,101089.16
2023-08-19T07:50:59.940Z,101093.88
2023-08-19T07:53:26.916Z,101091.88
2023-08-19T07:55:55.147Z,101099.03
2023-08-19T07:58:22.006Z,101103.88
2023-08-19T08:00:49.073Z,101103.84
2023-08-19T08:03:15.988Z,101110.91
2023-08-19T08:05:43.005Z,101120.56
2023-08-19T08:08:09.841Z,101117.53
2023-08-19T08:10:36.695Z,101132.84
2023-08-19T08:13:05.202Z,101132.03
2023-08-19T08:15:32.320Z,101139.06
2023-08-19T08:17:59.499Z,101145.84
2023-08-19T08:20:26.379Z,101149.47
2023-08-19T08:22:53.347Z,101152.53
2023-08-19T08:25:20.385Z,101164.59
2023-08-19T08:27:47.250Z,101168.59
2023-08-19T08:30:15.493Z,101159.25
2023-08-19T08:32:42.477Z,101170.06
2023-08-19T08:35:09.542Z,101176.59
2023-08-19T08:37:36.587Z,101176.50
2023-08-19T08:40:04.770Z,101161.03
2023-08-19T08:42:32.556Z,101164.31
2023-08-19T08:44:59.872Z,101171.19
2023-08-19T08:47:28.599Z,101179.94
2023-08-19T08:49:56.918Z,101167.31
2023-08-19T08:52:25.437Z,101182.16
2023-08-19T08:54:53.313Z,101191.66
2023-08-19T08:57:21.077Z,101197.19
2023-08-19T08:59:47.982Z,101200.47
2023-08-19T09:02:16.672Z,101187.59
2023-08-19T09:04:46.624Z,101205.00
2023-08-19T09:07:18.266Z,101216.09
2023-08-19T09:09:47.045Z,101217.59
2023-08-19T09:12:14.527Z,101218.69
2023-08-19T09:14:43.918Z,101226.66
2023-08-19T09:17:13.303Z,101229.66
2023-08-19T09:19:40.587Z,101221.53
2023-08-19T09:22:20.378Z,101230.19
2023-08-19T09:24:47.477Z,101225.69
2023-08-19T09:27:18.203Z,101239.75
2023-08-19T09:29:50.635Z,101261.34
2023-08-19T09:32:17.725Z,101259.88
2023-08-19T09:34:44.633Z,101268.97
2023-08-19T09:37:13.652Z,101279.97
2023-08-19T09:39:40.541Z,101288.94
2023-08-19T09:42:09.782Z,101279.03
2023-08-19T09:44:41.499Z,101279.84
2023-08-19T09:47:08.559Z,101276.72
2023-08-19T09:49:38.236Z,101275.56
2023-08-19T09:52:05.839Z,101270.72
2023-08-19T09:54:34.187Z,101270.38
2023-08-19T09:57:01.118Z,101275.66
2023-08-19T09:59:28.160Z,101279.03
2023-08-19T10:02:01.409Z,101293.38
2023-08-19T10:04:28.141Z,101289.78
2023-08-19T10:06:57.476Z,101274.34
2023-08-19T10:09:27.894Z,101275.06
2023-08-19T10:11:57.333Z,101296.78
2023-08-19T10:14:30.955Z,101331.56
2023-08-19T10:17:03.162Z,101338.03
2023-08-19T10:19:35.183Z,101347.56
2023-08-19T10:22:04.032Z,101323.69
2023-08-19T10:24:31.487Z,101312.47
2023-08-19T10:26:59.747Z,101316.16
2023-08-19T10:29:26.621Z,101339.00
2023-08-19T10:31:53.653Z,101359.91
2023-08-19T10:34:26.816Z,101363.19
2023-08-19T10:37:05.420Z,101368.16
2023-08-19T10:39:32.470Z,101364.69
2023-08-19T10:42:00.756Z,101337.13
2023-08-19T10:44:32.644Z,101350.81
2023-08-19T10:47:09.583Z,101359.34
2023-08-19T10:49:37.104Z,101350.34
2023-08-19T10:52:07.494Z,101366.78
2023-08-19T10:54:36.986Z,101359.81
2023-08-19T10:57:10.194Z,101359.63
2023-08-19T10:59:38.634Z,101358.78
2023-08-19T11:02:06.923Z,101374.09
2023-08-19T11:04:34.065Z,101392.25
2023-08-19T11:07:01.216Z,101390.34
2023-08-19T11:09:28.260Z,101398.03
2023-08-19T11:11:56.557Z,101409.97
2023-08-19T11:14:25.491Z,101417.31
2023-08-19T11:16:54.202Z,101426.28
2023-08-19T11:19:21.672Z,101432.91
2023-08-19T11:21:48.722Z,101432.63
2023-08-19T11:24:15.984Z,101421.75
2023-08-19T11:26:44.227Z,101400.09
2023-08-19T11:29:11.724Z,101387.47
2023-08-19T11:31:41.869Z,101396.72
2023-08-19T11:34:09.630Z,101406.69
2023-08-19T11:36:37.312Z,101410.03
2023-08-19T11:39:05.471Z,101421.16
2023-08-19T11:41:33.064Z,101430.63
2023-08-19T11:44:00.271Z,101427.78
2023-08-19T11:46:29.225Z,101423.94
2023-08-19T11:48:59.152Z,101431.34
2023-08-19T11:51:26.512Z,101438.09
2023-08-19T11:53:57.511Z,101427.88
2023-08-19T11:56:25.687Z,101445.38
2023-08-19T11:58:54.394Z,101444.84
2023-08-19T12:01:22.476Z,101454.00
2023-08-19T12:03:51.590Z,101457.16
2023-08-19T12:06:19.910Z,101462.06
2023-08-19T12:08:51.127Z,101471.03
2023-08-19T12:11:26.720Z,101466.38
2023-08-19T12:13:53.643Z,101463.69
2023-08-19T12:16:21.550Z,101465.38
2023-08-19T12:18:48.638Z,101473.34
2023-08-19T12:21:15.538Z,101469.72
2023-08-19T12:23:43.817Z,101469.81
2023-08-19T12:26:10.636Z,101471.72
2023-08-19T12:28:37.448Z,101463.63
2023-08-19T12:31:04.308Z,101460.97
2023-08-19T12:33:31.146Z,101458.47
2023-08-19T12:36:12.559Z,101471.53
2023-08-19T12:38:46.757Z,101467.28
2023-08-19T12:41:13.814Z,101483.19
2023-08-19T12:43:40.850Z,101482.13
2023-08-19T12:46:07.991Z,101489.28
2023-08-19T12:48:35.015Z,101484.53
2023-08-19T12:51:02.095Z,101484.78
2023-08-19T12:53:28.988Z,101485.72
2023-08-19T12:55:57.358Z,101478.56
2023-08-19T12:58:24.403Z,101486.41
2023-08-19T13:00:51.380Z,101485.81
2023-08-19T13:03:18.355Z,101479.13
2023-08-19T13:05:45.309Z,101477.53
2023-08-19T13:08:12.687Z,101478.44
2023-08-19T13:10:39.610Z,101476.00
2023-08-19T13:13:08.088Z,101483.69
2023-08-19T13:15:35.057Z,101485.41
2023-08-19T13:18:01.918Z,101487.34
2023-08-19T13:20:28.846Z,101487.97
2023-08-19T13:22:55.958Z,101484.31
2023-08-19T13:25:23.322Z,101482.06
2023-08-19T13:27:50.300Z,101482.03
2023-08-19T13:30:18.704Z,101484.84
2023-08-19T13:32:45.563Z,101488.16
2023-08-19T13:35:12.565Z,101476.50
2023-08-19T13:37:39.550Z,101483.81
2023-08-19T13:40:08.658Z,101480.41
2023-08-19T13:42:35.932Z,101483.63
2023-08-19T13:45:05.529Z,101471.84
2023-08-19T13:47:34.178Z,101480.72
2023-08-19T13:50:01.596Z,101485.09
2023-08-19T13:52:40.361Z,101486.88
2023-08-19T13:55:08.781Z,101482.94
2023-08-19T13:57:36.208Z,101490.66
2023-08-19T14:00:11.805Z,101493.44
2023-08-19T14:02:42.718Z,101489.38
2023-08-19T14:05:12.868Z,101502.09
2023-08-19T14:07:40.747Z,101499.69
2023-08-19T14:10:08.754Z,101486.03
2023-08-19T14:12:35.622Z,101505.72
2023-08-19T14:15:02.809Z,101496.09
2023-08-19T14:17:29.935Z,101500.00
2023-08-19T14:19:58.258Z,101501.78
2023-08-19T14:22:25.117Z,101500.56
2023-08-19T14:24:52.013Z,101496.22
2023-08-19T14:27:18.924Z,101497.03
2023-08-19T14:29:45.733Z,101488.00
2023-08-19T14:32:12.690Z,101495.63
2023-08-19T14:34:39.803Z,101499.78
2023-08-19T14:37:08.308Z,101495.84
2023-08-19T14:39:35.345Z,101495.75
2023-08-19T14:42:02.191Z,101505.91
2023-08-19T14:44:31.003Z,101497.09
2023-08-19T14:46:58.891Z,101495.97
2023-08-19T14:49:26.374Z,101492.50
2023-08-19T14:51:53.295Z,101493.78
2023-08-19T14:54:21.423Z,101503.59
2023-08-19T14:56:48.595Z,101494.59
2023-08-19T14:59:15.899Z,101491.94
2023-08-19T15:01:42.927Z,101486.06
2023-08-19T15:04:10.035Z,101500.47
2023-08-19T15:06:36.988Z,101500.72
2023-08-19T15:09:07.282Z,101494.22
2023-08-19T15:11:41.042Z,101494.78
2023-08-19T15:14:09.048Z,101495.50
2023-08-19T15:16:36.319Z,101492.16
2023-08-19T15:19:05.103Z,101492.38
2023-08-19T15:21:32.291Z,101500.72
2023-08-19T15:23:59.802Z,101499.19
2023-08-19T15:26:26.756Z,101494.47
2023-08-19T15:28:55.475Z,101497.94
2023-08-19T15:31:23.554Z,101497.25
2023-08-19T15:33:50.862Z,101496.66
2023-08-19T15:36:19.698Z,101498.88
2023-08-19T15:38:47.029Z,101499.56
2023-08-19T15:41:13.861Z,101495.50
2023-08-19T15:43:40.726Z,101487.78
2023-08-19T15:46:09.233Z,101477.59
2023-08-19T15:48:36.508Z,101494.75
2023-08-19T15:51:03.636Z,101506.66
2023-08-19T15:53:30.524Z,101508.94
2023-08-19T15:55:57.468Z,101506.13
2023-08-19T15:58:24.609Z,101515.53
2023-08-19T16:00:51.616Z,101522.88
2023-08-19T16:03:19.860Z,101517.91
2023-08-19T16:05:46.946Z,101514.25
2023-08-19T16:08:13.975Z,101516.22
2023-08-19T16:10:40.885Z,101515.94
2023-08-19T16:13:08.444Z,101525.38
2023-08-19T16:15:35.385Z,101514.03
2023-08-19T16:18:02.247Z,101520.44
2023-08-19T16:20:30.520Z,101525.66
2023-08-19T16:22:57.420Z,101525.94
2023-08-19T16:25:24.293Z,101516.53
2023-08-19T16:27:53.107Z,101521.50
2023-08-19T16:30:20.311Z,101516.41
2023-08-19T16:32:47.233Z,101519.25
2023-08-19T16:35:15.384Z,101523.69
2023-08-19T16:37:43.608Z,101530.84
2023-08-19T16:40:10.916Z,101534.03
2023-08-19T16:42:37.730Z,101537.13
2023-08-19T16:45:05.218Z,101538.34
2023-08-19T16:47:32.487Z,101538.91
2023-08-19T16:49:59.814Z,101540.00
2023-08-19T16:52:28.325Z,101543.47
2023-08-19T16:54:56.756Z,101541.69
2023-08-19T16:57:23.668Z,101549.22
2023-08-19T16:59:50.486Z,101540.59
2023-08-19T17:02:17.461Z,101536.53
2023-08-19T17:04:45.013Z,101543.00
2023-08-19T17:07:11.977Z,101543.47
2023-08-19T17:09:41.192Z,101544.88
2023-08-19T17:12:09.765Z,101555.16
2023-08-19T17:14:37.114Z,101551.34
2023-08-19T17:17:04.462Z,101556.94
2023-08-19T17:19:31.308Z,101550.84
2023-08-19T17:21:58.145Z,101547.97
2023-08-19T17:24:25.056Z,101556.94
2023-08-19T17:26:52.011Z,101552.06
2023-08-19T17:29:20.183Z,101561.00
2023-08-19T17:31:47.027Z,101561.66
2023-08-19T17:34:13.854Z,101566.72
2023-08-19T17:36:40.730Z,101565.56
2023-08-19T17:39:09.579Z,101568.09
2023-08-19T17:41:36.434Z,101568.41
2023-08-19T17:44:03.722Z,101568.84
2023-08-19T17:46:31.982Z,101567.44
2023-08-19T17:48:58.901Z,101574.25
2023-08-19T17:51:25.718Z,101573.22
2023-08-19T17:53:52.550Z,101580.94
2023-08-19T17:56:19.416Z,101576.31
2023-08-19T17:58:46.328Z,101591.91
2023-08-19T18:01:13.670Z,101586.09
2023-08-19T18:03:42.473Z,101589.59
2023-08-19T18:06:09.420Z,101591.75
2023-08-19T18:08:36.477Z,101587.63
2023-08-19T18:11:04.063Z,101586.69
2023-08-19T18:13:31.017Z,101587.16
2023-08-19T18:15:57.888Z,101590.53
2023-08-19T18:18:24.662Z,101592.34
2023-08-19T18:20:55.423Z,101594.09
2023-08-19T18:23:22.902Z,101591.59
2023-08-19T18:25:49.879Z,101601.19
2023-08-19T18:28:16.936Z,101613.91
2023-08-19T18:30:43.774Z,101594.47
2023-08-19T18:33:10.641Z,101608.03
2023-08-19T18:35:37.459Z,101609.69
2023-08-19T18:38:06.014Z,101612.22
2023-08-19T18:40:34.433Z,101616.84
2023-08-19T18:43:01.267Z,101622.25
2023-08-19T18:45:28.239Z,101617.84
2023-08-19T18:48:04.465Z,101623.63
2023-08-19T18:50:31.715Z,101621.25
2023-08-19T18:52:58.678Z,101625.00
2023-08-19T18:55:27.798Z,101623.44
2023-08-19T18:57:54.694Z,101628.78
2023-08-19T19:00:22.068Z,101627.97
2023-08-19T19:02:51.776Z,101631.19
2023-08-19T19:05:19.033Z,101632.06
2023-08-19T19:07:46.194Z,101633.72
2023-08-19T19:10:13.192Z,101645.53
2023-08-19T19:12:41.449Z,101646.75
2023-08-19T19:15:10.734Z,101642.25
2023-08-19T19:17:55.156Z,101654.91
2023-08-19T19:20:23.221Z,101650.53
2023-08-19T19:22:50.768Z,101656.22
2023-08-19T19:25:20.560Z,101664.00
2023-08-19T19:27:49.643Z,101671.75
2023-08-19T19:30:18.639Z,101683.56
2023-08-19T19:32:47.110Z,101686.44
2023-08-19T19:35:15.711Z,101695.00
2023-08-19T19:37:44.831Z,101686.47
2023-08-19T19:40:13.416Z,101690.53
2023-08-19T19:42:40.457Z,101690.94
2023-08-19T19:45:11.031Z,101698.66
2023-08-19T19:47:39.497Z,101704.75
2023-08-19T19:50:07.753Z,101704.75
2023-08-19T19:52:35.064Z,101703.53
2023-08-19T19:55:01.936Z,101703.06
2023-08-19T19:57:28.916Z,101709.16
2023-08-19T19:59:56.556Z,101720.13
2023-08-19T20:02:24.803Z,101725.81
2023-08-19T20:04:51.684Z,101723.78
2023-08-19T20:07:18.540Z,101726.59
2023-08-19T20:09:45.387Z,101727.81
2023-08-19T20:12:12.193Z,101725.78
2023-08-19T20:14:39.098Z,101729.03
2023-08-19T20:17:06.069Z,101731.91
2023-08-19T20:19:34.326Z,101731.88
2023-08-19T20:22:01.688Z,101735.13
2023-08-19T20:24:28.994Z,101731.00
2023-08-19T20:26:56.083Z,101736.97
2023-08-19T20:29:23.373Z,101732.09
2023-08-19T20:31:50.405Z,101738.16
2023-08-19T20:34:17.498Z,101749.09
2023-08-19T20:36:45.835Z,101748.28
2023-08-19T20:39:12.687Z,101736.88
2023-08-19T20:41:39.557Z,101743.38
2023-08-19T20:44:11.506Z,101736.41
2023-08-19T20:46:38.810Z,101745.41
2023-08-19T20:49:07.311Z,101742.47
2023-08-19T20:51:34.324Z,101745.22
2023-08-19T20:54:03.760Z,101755.81
2023-08-19T20:56:31.070Z,101758.59
2023-08-19T20:58:58.518Z,101758.53
2023-08-19T21:01:26.130Z,101754.06
2023-08-19T21:03:53.440Z,101755.19
2023-08-19T21:06:20.295Z,101759.56
2023-08-19T21:08:47.153Z,101756.59
2023-08-19T21:11:15.958Z,101750.53
2023-08-19T21:13:42.839Z,101750.91
2023-08-19T21:16:09.694Z,101754.97
2023-08-19T21:18:36.594Z,101759.44
2023-08-19T21:21:03.615Z,101760.66
2023-08-19T21:23:30.556Z,101761.78
2023-08-19T21:25:57.361Z,101765.47
2023-08-19T21:28:25.620Z,101771.19
2023-08-19T21:30:53.856Z,101772.03
2023-08-19T21:33:20.845Z,101772.50
2023-08-19T21:35:47.851Z,101774.63
2023-08-19T21:38:14.858Z,101773.97
2023-08-19T21:40:41.837Z,101777.31
2023-08-19T21:43:08.728Z,101774.50
2023-08-19T21:45:36.949Z,101781.50
2023-08-19T21:48:04.459Z,101772.03
2023-08-19T21:50:32.525Z,101781.50
2023-08-19T21:52:59.309Z,101782.78
2023-08-19T21:55:26.842Z,101781.59
2023-08-19T21:57:53.660Z,101780.44
2023-08-19T22:00:21.555Z,101780.03
2023-08-19T22:02:49.828Z,101779.22
2023-08-19T22:05:16.937Z,101780.88
2023-08-19T22:07:43.755Z,101780.91
2023-08-19T22:10:11.039Z,101782.50
2023-08-19T22:12:38.032Z,101779.59
2023-08-19T22:15:05.748Z,101784.44
2023-08-19T22:17:32.809Z,101782.03
2023-08-19T22:20:01.281Z,101785.34
2023-08-19T22:22:28.117Z,101783.38
2023-08-19T22:24:55.065Z,101780.09
2023-08-19T22:27:21.873Z,101777.63
2023-08-19T22:29:48.917Z,101779.66
2023-08-19T22:32:15.763Z,101764.50
2023-08-19T22:34:42.567Z,101765.31
2023-08-19T22:37:12.044Z,101757.94
2023-08-19T22:39:38.825Z,101752.13
2023-08-19T22:42:06.101Z,101750.47
2023-08-19T22:44:32.925Z,101753.69
2023-08-19T22:46:59.742Z,101756.50
2023-08-19T22:49:26.562Z,101753.09
2023-08-19T22:51:53.354Z,101750.22
2023-08-19T22:54:21.554Z,101763.06
2023-08-19T22:56:48.415Z,101765.00
2023-08-19T22:59:15.204Z,101756.88
2023-08-19T23:01:42.165Z,101755.63
2023-08-19T23:04:09.072Z,101754.34
2023-08-19T23:06:35.896Z,101756.31
2023-08-19T23:09:02.820Z,101762.34
2023-08-19T23:11:31.174Z,101765.97
2023-08-19T23:13:58.093Z,101766.41
2023-08-19T23:16:24.979Z,101770.19
2023-08-19T23:18:51.819Z,101771.97
2023-08-19T23:21:21.571Z,101774.47
2023-08-19T23:23:49.372Z,101781.44
2023-08-19T23:26:16.489Z,101789.25
2023-08-19T23:28:44.656Z,101794.94
2023-08-19T23:31:11.493Z,101799.53
2023-08-19T23:33:38.308Z,101782.59
2023-08-19T23:36:05.281Z,101787.50
2023-08-19T23:38:32.205Z,101785.50
2023-08-19T23:40:59.210Z,101786.75
2023-08-19T23:43:26.256Z,101781.94
2023-08-19T23:45:54.472Z,101784.78
2023-08-19T23:48:21.778Z,101781.63
2023-08-19T23:50:50.943Z,101786.50
2023-08-19T23:53:20.000Z,101783.22
2023-08-19T23:55:47.277Z,101784.09
2023-08-19T23:58:14.803Z,101789.44
